createdAt,value
2022-11-12T00:04:20.888Z,101857.97
2022-11-12T00:09:43.623Z,101856.06
2022-11-12T00:15:05.820Z,101856.28
2022-11-12T00:20:26.952Z,101857.16
2022-11-12T00:25:49.564Z,101852.59
2022-11-12T00:31:12.159Z,101853.16
2022-11-12T00:36:33.363Z,101845.19
2022-11-12T00:41:56.431Z,101843.50
2022-11-12T00:47:17.630Z,101851.81
2022-11-12T00:52:38.995Z,101860.75
2022-11-12T00:58:01.816Z,101847.75
2022-11-12T01:03:23.181Z,101850.66
2022-11-12T01:08:45.134Z,101847.56
2022-11-12T01:14:11.027Z,101840.72
2022-11-12T01:19:32.387Z,101839.38
2022-11-12T01:24:53.817Z,101836.13
2022-11-12T01:30:16.950Z,101838.34
2022-11-12T01:35:38.352Z,101834.25
2022-11-12T01:40:59.872Z,101836.06
2022-11-12T01:46:29.117Z,101835.72
2022-11-12T01:51:52.771Z,101834.59
2022-11-12T01:57:14.168Z,101822.94
2022-11-12T02:02:37.542Z,101829.47
2022-11-12T02:08:00.127Z,101828.94
2022-11-12T02:13:39.010Z,101827.50
2022-11-12T02:19:02.062Z,101832.59
2022-11-12T02:24:36.800Z,101839.22
2022-11-12T02:29:58.367Z,101838.34
2022-11-12T02:35:19.797Z,101831.00
2022-11-12T02:40:42.760Z,101832.16
2022-11-12T02:46:04.092Z,101847.97
2022-11-12T02:51:25.460Z,101840.84
2022-11-12T02:56:48.132Z,101842.94
2022-11-12T03:02:09.484Z,101851.78
2022-11-12T03:07:30.868Z,101857.72
2022-11-12T03:12:54.115Z,101860.03
2022-11-12T03:18:15.223Z,101857.28
2022-11-12T03:23:36.541Z,101863.56
2022-11-12T03:28:59.363Z,101859.81
2022-11-12T03:34:24.403Z,101876.13
2022-11-12T03:39:48.251Z,101866.34
2022-11-12T03:45:11.055Z,101855.34
2022-11-12T03:50:32.221Z,101852.28
2022-11-12T03:55:54.273Z,101845.00
2022-11-12T04:01:17.007Z,101854.72
2022-11-12T04:06:56.161Z,101855.56
2022-11-12T04:12:35.170Z,101848.84
2022-11-12T04:18:15.739Z,101843.34
2022-11-12T04:23:36.963Z,101845.53
2022-11-12T04:29:15.998Z,101847.81
2022-11-12T04:34:38.861Z,101842.84
2022-11-12T04:40:20.760Z,101839.97
2022-11-12T04:45:42.833Z,101836.69
2022-11-12T04:51:27.529Z,101833.44
2022-11-12T04:56:48.721Z,101844.38
2022-11-12T05:02:10.081Z,101851.91
2022-11-12T05:07:34.438Z,101854.34
2022-11-12T05:12:55.785Z,101863.25
2022-11-12T05:18:17.203Z,101867.72
2022-11-12T05:23:40.002Z,101868.94
2022-11-12T05:29:04.969Z,101866.06
2022-11-12T05:34:28.963Z,101861.84
2022-11-12T05:39:51.752Z,101874.09
2022-11-12T05:45:14.083Z,101874.75
2022-11-12T05:50:45.371Z,101877.53
2022-11-12T05:56:14.096Z,101879.50
2022-11-12T06:01:43.922Z,101890.34
2022-11-12T06:07:05.133Z,101878.38
2022-11-12T06:12:27.989Z,101890.34
2022-11-12T06:17:49.321Z,101892.69
2022-11-12T06:23:10.742Z,101898.09
2022-11-12T06:28:33.669Z,101895.03
2022-11-12T06:33:55.187Z,101897.47
2022-11-12T06:39:16.589Z,101893.91
2022-11-12T06:44:39.390Z,101901.38
2022-11-12T06:50:00.700Z,101891.94
2022-11-12T06:55:22.250Z,101898.66
2022-11-12T07:00:45.115Z,101903.69
2022-11-12T07:06:11.411Z,101904.28
2022-11-12T07:11:33.050Z,101905.84
2022-11-12T07:16:55.932Z,101905.50
2022-11-12T07:22:17.671Z,101901.56
2022-11-12T07:27:39.205Z,101902.94
2022-11-12T07:33:02.123Z,101892.41
2022-11-12T07:38:23.709Z,101895.19
2022-11-12T07:43:47.151Z,101907.16
2022-11-12T07:49:09.821Z,101907.50
2022-11-12T07:54:31.195Z,101904.34
2022-11-12T07:59:52.588Z,101910.22
2022-11-12T08:05:21.009Z,101910.09
2022-11-12T08:10:42.977Z,101910.63
2022-11-12T08:16:04.269Z,101905.97
2022-11-12T08:21:27.173Z,101902.06
2022-11-12T08:26:48.565Z,101902.13
2022-11-12T08:32:10.166Z,101902.31
2022-11-12T08:37:32.824Z,101894.78
2022-11-12T08:43:00.780Z,101892.81
2022-11-12T08:48:22.353Z,101905.94
2022-11-12T08:53:44.947Z,101899.75
2022-11-12T08:59:07.581Z,101900.78
2022-11-12T09:04:28.991Z,101907.09
2022-11-12T09:09:51.632Z,101913.72
2022-11-12T09:20:55.312Z,101906.75
2022-11-12T09:26:18.052Z,101896.03
2022-11-12T09:31:39.418Z,101902.03
2022-11-12T09:37:01.021Z,101914.66
2022-11-12T09:42:24.184Z,101915.00
2022-11-12T09:47:48.726Z,101909.94
2022-11-12T09:53:15.331Z,101900.53
2022-11-12T09:58:38.462Z,101902.97
2022-11-12T10:04:08.406Z,101900.38
2022-11-12T10:09:33.960Z,101911.03
2022-11-12T10:15:36.579Z,101909.00
2022-11-12T10:21:00.676Z,101907.72
2022-11-12T10:26:23.736Z,101909.63
2022-11-12T10:31:46.308Z,101911.59
2022-11-12T10:37:08.833Z,101905.41
2022-11-12T10:42:30.035Z,101901.66
2022-11-12T10:47:52.789Z,101901.78
2022-11-12T10:53:14.286Z,101889.88
2022-11-12T10:58:35.689Z,101889.16
2022-11-12T11:03:59.159Z,101881.84
2022-11-12T11:09:21.609Z,101882.06
2022-11-12T11:14:44.420Z,101883.28
2022-11-12T11:20:15.812Z,101870.22
2022-11-12T11:25:37.384Z,101865.16
2022-11-12T11:31:04.104Z,101863.72
2022-11-12T11:36:31.810Z,101861.22
2022-11-12T11:42:05.018Z,101858.03
2022-11-12T11:47:59.474Z,101852.88
2022-11-12T11:53:23.107Z,101847.09
2022-11-12T11:59:00.184Z,101845.88
2022-11-12T12:04:35.529Z,101833.75
2022-11-12T12:10:09.211Z,101835.78
2022-11-12T12:15:49.119Z,101827.91
2022-11-12T12:21:13.538Z,101833.41
2022-11-12T12:26:38.670Z,101816.94
2022-11-12T12:32:03.777Z,101818.50
2022-11-12T12:37:28.414Z,101811.84
2022-11-12T12:42:55.273Z,101811.94
2022-11-12T12:48:29.804Z,101804.47
2022-11-12T12:53:51.015Z,101804.31
2022-11-12T12:59:22.266Z,101804.06
2022-11-12T13:04:55.781Z,101807.09
2022-11-12T13:10:47.878Z,101801.38
2022-11-12T13:16:10.331Z,101792.63
2022-11-12T13:21:31.830Z,101793.94
2022-11-12T13:26:55.860Z,101796.31
2022-11-12T13:32:41.794Z,101791.84
2022-11-12T13:38:05.862Z,101789.94
2022-11-12T13:43:33.148Z,101779.13
2022-11-12T13:49:00.071Z,101771.19
2022-11-12T13:54:33.192Z,101777.69
2022-11-12T14:00:20.618Z,101780.88
2022-11-12T14:05:48.316Z,101779.19
2022-11-12T14:11:21.993Z,101780.03
2022-11-12T14:16:52.276Z,101786.38
2022-11-12T14:22:16.818Z,101778.72
2022-11-12T14:27:38.451Z,101774.38
2022-11-12T14:33:01.045Z,101763.63
2022-11-12T14:38:29.836Z,101752.75
2022-11-12T14:44:11.070Z,101752.41
2022-11-12T14:49:38.253Z,101761.16
2022-11-12T14:55:07.686Z,101746.47
2022-11-12T15:00:41.439Z,101746.81
2022-11-12T15:06:09.990Z,101736.44
2022-11-12T15:11:35.195Z,101732.41
2022-11-12T15:16:56.781Z,101720.66
2022-11-12T15:22:21.620Z,101729.13
2022-11-12T15:27:44.431Z,101719.31
2022-11-12T15:33:10.302Z,101745.63
2022-11-12T15:38:36.028Z,101729.53
2022-11-12T15:43:58.842Z,101746.50
2022-11-12T15:49:20.078Z,101734.19
2022-11-12T15:54:41.460Z,101732.28
2022-11-12T16:00:08.647Z,101732.19
2022-11-12T16:05:33.176Z,101742.47
2022-11-12T16:10:55.249Z,101738.78
2022-11-12T16:16:18.416Z,101741.13
2022-11-12T16:21:39.951Z,101741.84
2022-11-12T16:27:02.350Z,101750.69
2022-11-12T16:32:25.314Z,101745.38
2022-11-12T16:37:47.480Z,101746.91
2022-11-12T16:43:08.546Z,101748.50
2022-11-12T16:48:32.178Z,101741.28
2022-11-12T16:53:53.358Z,101742.16
2022-11-12T16:59:14.899Z,101731.72
2022-11-12T17:04:38.004Z,101742.56
2022-11-12T17:09:59.577Z,101727.47
2022-11-12T17:15:20.836Z,101746.97
2022-11-12T17:20:47.116Z,101731.31
2022-11-12T17:26:12.940Z,101733.78
2022-11-12T17:31:34.508Z,101729.75
2022-11-12T17:36:57.475Z,101715.19
2022-11-12T17:42:19.209Z,101717.31
2022-11-12T17:47:40.836Z,101715.56
2022-11-12T17:53:03.737Z,101719.34
2022-11-12T17:58:25.506Z,101716.66
2022-11-12T18:03:50.082Z,101713.00
2022-11-12T18:09:15.527Z,101709.38
2022-11-12T18:14:36.808Z,101703.78
2022-11-12T18:19:58.217Z,101697.72
2022-11-12T18:25:21.363Z,101702.97
2022-11-12T18:30:42.807Z,101706.31
2022-11-12T18:36:06.345Z,101706.75
2022-11-12T18:41:30.238Z,101717.25
2022-11-12T18:46:51.355Z,101722.81
2022-11-12T18:52:13.095Z,101710.25
2022-11-12T18:57:35.888Z,101723.47
2022-11-12T19:02:57.338Z,101713.84
2022-11-12T19:08:19.284Z,101715.69
2022-11-12T19:13:42.354Z,101711.63
2022-11-12T19:19:03.812Z,101712.88
2022-11-12T19:24:25.290Z,101702.00
2022-11-12T19:29:49.473Z,101703.66
2022-11-12T19:35:11.056Z,101709.44
2022-11-12T19:40:32.124Z,101701.44
2022-11-12T19:45:55.049Z,101694.94
2022-11-12T19:51:16.599Z,101700.09
2022-11-12T19:56:37.897Z,101707.94
2022-11-12T20:02:00.775Z,101704.59
2022-11-12T20:07:22.470Z,101712.25
2022-11-12T20:12:44.204Z,101701.88
2022-11-12T20:18:09.645Z,101703.16
2022-11-12T20:23:31.787Z,101717.97
2022-11-12T20:28:53.020Z,101721.31
2022-11-12T20:34:16.185Z,101709.09
2022-11-12T20:39:37.533Z,101716.84
2022-11-12T20:44:58.738Z,101703.72
2022-11-12T20:50:21.532Z,101699.47
2022-11-12T20:55:42.743Z,101692.38
2022-11-12T21:01:04.493Z,101693.94
2022-11-12T21:06:29.513Z,101690.13
2022-11-12T21:11:51.266Z,101681.34
2022-11-12T21:17:12.661Z,101689.19
2022-11-12T21:22:35.444Z,101685.06
2022-11-12T21:27:56.816Z,101681.47
2022-11-12T21:33:23.161Z,101671.19
2022-11-12T21:38:45.648Z,101662.16
2022-11-12T21:44:07.264Z,101672.91
2022-11-12T21:49:31.822Z,101678.50
2022-11-12T21:54:54.644Z,101677.03
2022-11-12T22:00:41.073Z,101673.69
2022-11-12T22:06:00.014Z,101666.50
2022-11-12T22:11:23.230Z,101662.03
2022-11-12T22:16:44.402Z,101665.59
2022-11-12T22:22:06.221Z,101668.84
2022-11-12T22:27:31.555Z,101657.94
2022-11-12T22:32:52.963Z,101652.84
2022-11-12T22:38:16.641Z,101656.44
2022-11-12T22:43:39.438Z,101643.13
2022-11-12T22:49:02.454Z,101640.50
2022-11-12T22:54:23.652Z,101633.81
2022-11-12T22:59:46.532Z,101643.69
2022-11-12T23:05:08.509Z,101633.16
2022-11-12T23:10:31.774Z,101631.09
2022-11-12T23:15:54.262Z,101621.03
2022-11-12T23:21:18.866Z,101616.75
2022-11-12T23:26:40.248Z,101612.72
2022-11-12T23:32:02.956Z,101608.63
2022-11-12T23:37:29.223Z,101608.72
2022-11-12T23:42:50.460Z,101605.09
2022-11-12T23:48:13.377Z,101612.09
2022-11-12T23:53:35.996Z,101607.03
2022-11-12T23:58:58.269Z,101589.06
